Time;durP1;ratioP1;P1;durP2;ratioP2;P2;SDS_P1;SDS_P2;PMS_P1;PMS_P2;Temp;Humidity;BMP_temperature;BMP_pressure;BME280_temperature;BME280_humidity;BME280_pressure;Samples;Min_cycle;Max_cycle;Signal;HPM_P1;HPM_P2
2022/04/28 00:04:31;;;;;;;4.50;3.20;;;21.10;48.20;;;;;;220338;1267;24292;-69
2022/04/28 00:09:36;;;;;;;5.10;3.00;;;21.10;47.90;;;;;;220494;1267;22525;-71
2022/04/28 00:14:42;;;;;;;6.00;3.20;;;21.00;47.90;;;;;;220584;1268;25295;-68
2022/04/28 00:19:48;;;;;;;4.40;2.90;;;21.00;48.00;;;;;;220291;1267;22535;-68
2022/04/28 00:24:52;;;;;;;5.50;3.30;;;21.00;48.00;;;;;;220695;1267;24415;-69
2022/04/28 00:29:56;;;;;;;4.70;3.10;;;21.00;48.00;;;;;;220676;1267;22717;-73
2022/04/28 00:35:01;;;;;;;5.40;3.30;;;20.90;48.00;;;;;;220626;1267;25326;-68
2022/04/28 00:40:06;;;;;;;5.30;3.00;;;20.90;48.10;;;;;;220565;1267;22837;-71
2022/04/28 00:45:12;;;;;;;5.40;3.40;;;20.90;48.10;;;;;;220603;1267;25379;-69
2022/04/28 00:55:40;;;;;;;4.80;3.30;;;20.80;48.20;;;;;;220718;1268;26667;-68
2022/04/28 01:00:44;;;;;;;5.60;3.30;;;20.80;48.30;;;;;;220391;1267;24911;-69
2022/04/28 01:05:53;;;;;;;4.50;3.00;;;20.80;48.20;;;;;;220454;1268;25400;-69
2022/04/28 01:10:57;;;;;;;5.80;3.40;;;20.80;48.00;;;;;;220379;1267;22716;-68
2022/04/28 01:16:02;;;;;;;5.80;3.40;;;20.70;48.30;;;;;;220845;1267;24371;-67
2022/04/28 01:21:07;;;;;;;6.00;3.60;;;20.70;48.40;;;;;;220289;1267;22545;-70
2022/04/28 01:26:13;;;;;;;4.80;3.30;;;20.60;48.30;;;;;;220643;1267;25335;-66
2022/04/28 01:31:17;;;;;;;6.20;3.50;;;20.70;48.70;;;;;;220921;1268;25084;-69
2022/04/28 01:36:25;;;;;;;6.00;3.80;;;20.70;48.40;;;;;;220515;1267;24420;-67
2022/04/28 01:41:29;;;;;;;4.60;3.40;;;20.60;48.40;;;;;;220180;1270;24302;-69
2022/04/28 01:46:33;;;;;;;4.70;3.30;;;20.60;48.40;;;;;;220517;1267;22551;-67
2022/04/28 01:57:47;;;;;;;5.50;3.20;;;20.50;48.40;;;;;;220240;1265;24265;-64
2022/04/28 02:03:02;;;;;;;5.30;3.20;;;20.60;48.50;;;;;;220707;1267;25506;-67
2022/04/28 02:08:09;;;;;;;5.20;3.50;;;20.50;48.50;;;;;;220770;1268;26482;-68
2022/04/28 02:13:13;;;;;;;4.90;3.50;;;20.50;48.30;;;;;;220188;1268;24131;-68
2022/04/28 02:18:39;;;;;;;5.30;3.70;;;20.50;48.10;;;;;;220286;1267;22555;-70
2022/04/28 02:23:43;;;;;;;4.90;3.30;;;20.50;48.60;;;;;;220232;1268;22505;-67
2022/04/28 02:28:47;;;;;;;6.00;3.90;;;20.40;48.50;;;;;;220640;1267;23070;-68
2022/04/28 02:33:51;;;;;;;5.40;3.90;;;20.40;48.50;;;;;;220654;1268;24300;-69
2022/04/28 02:39:09;;;;;;;5.70;3.60;;;20.40;48.60;;;;;;220354;1268;25433;-68
2022/04/28 02:44:14;;;;;;;6.00;3.90;;;20.40;48.30;;;;;;220512;1268;24244;-68
2022/04/28 02:49:18;;;;;;;5.90;3.80;;;20.40;48.90;;;;;;220574;1268;22552;-68
2022/04/28 02:54:23;;;;;;;5.00;3.40;;;20.40;48.60;;;;;;220401;1267;24300;-69
2022/04/28 02:59:32;;;;;;;5.20;3.40;;;20.30;48.50;;;;;;220354;1267;24344;-67
2022/04/28 03:04:39;;;;;;;5.60;3.40;;;20.60;48.00;;;;;;220373;1268;24283;-67
2022/04/28 03:15:09;;;;;;;5.50;3.50;;;21.40;46.60;;;;;;220089;1270;22594;-67
2022/04/28 03:20:13;;;;;;;5.70;3.80;;;21.60;46.10;;;;;;220061;1269;25509;-67
2022/04/28 03:25:17;;;;;;;6.40;3.70;;;21.70;45.80;;;;;;220090;1267;24300;-69
2022/04/28 03:30:21;;;;;;;6.50;3.90;;;21.80;45.50;;;;;;220201;1267;24208;-72
2022/04/28 03:35:54;;;;;;;6.60;4.10;;;22.00;45.30;;;;;;220281;1269;22560;-67
2022/04/28 03:40:58;;;;;;;5.40;3.60;;;22.00;45.10;;;;;;220606;1267;24215;-68
2022/04/28 03:46:02;;;;;;;5.90;3.30;;;22.10;45.00;;;;;;220230;1268;24297;-69
2022/04/28 03:51:06;;;;;;;7.10;3.30;;;22.20;44.90;;;;;;220371;1270;22791;-69
2022/04/28 03:56:10;;;;;;;6.30;3.40;;;22.30;45.10;;;;;;220535;1268;22546;-70
2022/04/28 04:01:14;;;;;;;5.80;3.40;;;22.20;44.80;;;;;;220406;1268;22804;-69
2022/04/28 04:06:34;;;;;;;4.40;3.20;;;22.20;45.00;;;;;;220387;1270;22576;-70
2022/04/28 04:12:01;;;;;;;6.40;3.70;;;22.00;45.10;;;;;;220322;1268;22681;-71
2022/04/28 04:17:25;;;;;;;5.40;3.80;;;21.90;45.40;;;;;;220830;1270;24338;-70
2022/04/28 04:22:32;;;;;;;5.80;3.60;;;21.80;46.00;;;;;;220610;1269;445527;-67
2022/04/28 04:27:37;;;;;;;5.90;3.50;;;21.60;46.30;;;;;;220927;1268;24222;-73
2022/04/28 04:33:00;;;;;;;5.40;3.60;;;21.50;46.20;;;;;;220429;1268;22986;-70
2022/04/28 04:38:06;;;;;;;5.40;3.70;;;21.40;46.40;;;;;;220379;1268;22562;-69
2022/04/28 04:43:13;;;;;;;6.10;3.80;;;21.40;46.60;;;;;;220236;1268;25485;-68
2022/04/28 04:48:18;;;;;;;4.90;3.50;;;21.30;46.10;;;;;;220376;1267;22625;-68
2022/04/28 04:53:24;;;;;;;5.40;3.80;;;21.30;46.60;;;;;;220247;1267;22607;-69
2022/04/28 04:58:29;;;;;;;4.70;3.50;;;21.30;46.70;;;;;;220247;1269;25362;-68
2022/04/28 05:03:33;;;;;;;5.30;3.60;;;21.20;46.80;;;;;;220487;1267;22547;-68
2022/04/28 05:08:37;;;;;;;5.70;3.70;;;21.20;46.90;;;;;;220877;1270;26237;-66
2022/04/28 05:13:46;;;;;;;5.50;3.70;;;21.20;47.30;;;;;;220140;1268;25314;-70
2022/04/28 05:18:51;;;;;;;6.10;4.00;;;21.20;47.20;;;;;;220260;1271;22599;-69
2022/04/28 05:24:14;;;;;;;5.40;3.60;;;21.10;47.00;;;;;;220144;1268;22627;-67
2022/04/28 05:29:37;;;;;;;5.80;3.70;;;21.10;47.00;;;;;;220418;1268;22679;-73
2022/04/28 05:35:08;;;;;;;4.60;3.30;;;21.10;47.00;;;;;;220391;1268;25352;-68
2022/04/28 05:40:16;;;;;;;5.80;3.70;;;21.10;47.40;;;;;;220486;1268;24605;-72
2022/04/28 05:50:44;;;;;;;4.70;3.40;;;21.00;47.50;;;;;;220049;1271;22646;-69
2022/04/28 05:55:51;;;;;;;5.80;3.40;;;21.00;47.20;;;;;;220217;1271;25255;-68
2022/04/28 06:01:00;;;;;;;6.00;3.70;;;21.00;47.30;;;;;;220507;1268;26471;-70
2022/04/28 06:06:08;;;;;;;4.90;3.60;;;21.00;47.60;;;;;;220565;1268;25370;-67
2022/04/28 06:11:11;;;;;;;5.40;3.40;;;21.00;47.40;;;;;;220520;1268;22697;-70
2022/04/28 06:16:15;;;;;;;5.80;3.70;;;21.00;47.40;;;;;;220182;1268;22590;-70
2022/04/28 06:21:38;;;;;;;5.50;3.60;;;20.90;47.40;;;;;;220661;1268;25362;-67
2022/04/28 06:26:48;;;;;;;5.10;3.50;;;20.90;47.90;;;;;;220662;1268;25299;-68
2022/04/28 06:31:53;;;;;;;5.30;3.80;;;20.80;47.70;;;;;;220559;1268;24284;-69
2022/04/28 06:37:19;;;;;;;5.40;3.60;;;20.80;47.70;;;;;;220178;1268;25346;-69
2022/04/28 06:42:28;;;;;;;6.40;3.90;;;20.80;47.70;;;;;;220870;1268;24214;-69
2022/04/28 06:47:55;;;;;;;4.40;3.10;;;20.80;47.80;;;;;;220828;1267;23486;-70
2022/04/28 06:53:19;;;;;;;5.60;3.50;;;20.80;47.80;;;;;;220559;1269;24422;-69
2022/04/28 06:58:26;;;;;;;5.30;3.20;;;20.80;48.30;;;;;;220816;1267;22635;-70
2022/04/28 07:03:30;;;;;;;4.90;3.20;;;20.80;47.70;;;;;;220458;1267;22703;-71
2022/04/28 07:08:34;;;;;;;5.20;3.40;;;20.80;47.70;;;;;;220602;1268;22644;-69
2022/04/28 07:13:37;;;;;;;5.20;3.40;;;20.80;48.00;;;;;;220776;1268;22540;-68
2022/04/28 07:19:02;;;;;;;5.60;3.60;;;20.80;47.70;;;;;;220572;1268;24267;-71
2022/04/28 07:24:07;;;;;;;4.10;2.90;;;20.80;47.70;;;;;;220448;1268;24197;-72
2022/04/28 07:29:11;;;;;;;4.60;3.20;;;20.80;47.60;;;;;;220353;1268;24011;-72
2022/04/28 07:34:34;;;;;;;4.40;3.10;;;20.80;48.00;;;;;;220347;1267;22554;-71
2022/04/28 07:39:56;;;;;;;5.20;3.10;;;20.80;47.70;;;;;;220521;1267;24071;-69
2022/04/28 07:45:13;;;;;;;5.00;3.20;;;20.80;48.00;;;;;;220229;1268;22563;-70
2022/04/28 07:50:19;;;;;;;4.70;3.40;;;20.80;47.70;;;;;;220384;1267;25236;-69
2022/04/28 07:55:29;;;;;;;4.90;3.20;;;20.80;47.70;;;;;;220418;1267;22555;-70
2022/04/28 08:00:34;;;;;;;5.00;2.90;;;20.80;47.70;;;;;;220011;1270;22526;-70
2022/04/28 08:05:43;;;;;;;4.50;2.60;;;20.80;47.70;;;;;;220295;1268;22554;-69
2022/04/28 08:10:48;;;;;;;4.80;3.10;;;20.80;47.70;;;;;;220447;1267;22701;-72
2022/04/28 08:15:54;;;;;;;4.60;2.70;;;20.80;47.80;;;;;;220670;1267;22613;-74
2022/04/28 08:21:01;;;;;;;4.20;2.80;;;20.80;47.70;;;;;;220956;1267;22535;-70
2022/04/28 08:26:05;;;;;;;5.60;3.40;;;20.90;47.70;;;;;;220418;1267;25376;-69
2022/04/28 08:31:09;;;;;;;4.10;2.70;;;20.80;48.00;;;;;;220646;1268;22548;-72
2022/04/28 08:36:14;;;;;;;4.20;2.70;;;20.90;47.70;;;;;;220365;1268;22667;-69
2022/04/28 08:41:36;;;;;;;4.10;2.40;;;20.90;47.70;;;;;;220396;1268;22561;-70
2022/04/28 08:46:56;;;;;;;4.40;3.10;;;20.90;47.80;;;;;;220732;1268;22744;-69
2022/04/28 08:52:06;;;;;;;4.20;2.80;;;20.90;47.70;;;;;;220777;1267;22557;-71
2022/04/28 08:57:12;;;;;;;4.80;3.30;;;20.90;47.60;;;;;;220725;1268;22569;-70
2022/04/28 09:02:27;;;;;;;4.80;2.70;;;21.00;47.60;;;;;;220424;1268;22655;-72
2022/04/28 09:07:49;;;;;;;4.40;2.90;;;21.00;48.00;;;;;;220516;1267;22536;-70
2022/04/28 09:18:58;;;;;;;4.30;2.80;;;21.00;47.60;;;;;;220700;1267;23171;-70
2022/04/28 09:24:03;;;;;;;4.90;2.90;;;21.00;47.50;;;;;;220907;1267;24302;-71
2022/04/28 09:29:13;;;;;;;4.10;2.40;;;21.00;47.50;;;;;;220669;1268;22568;-71
2022/04/28 09:34:19;;;;;;;3.90;2.80;;;21.00;47.60;;;;;;220402;1268;22547;-71
2022/04/28 09:45:15;;;;;;;4.90;2.90;;;21.10;47.50;;;;;;220353;1266;25372;-69
2022/04/28 09:50:24;;;;;;;4.70;2.90;;;21.10;47.50;;;;;;220980;1268;25393;-70
2022/04/28 09:55:53;;;;;;;3.60;2.70;;;21.10;47.80;;;;;;220181;1267;22542;-69
2022/04/28 10:01:08;;;;;;;3.80;2.50;;;21.20;47.50;;;;;;220865;1268;22522;-70
2022/04/28 10:06:13;;;;;;;4.30;2.40;;;21.20;47.40;;;;;;220769;1267;22556;-72
2022/04/28 10:11:40;;;;;;;4.10;2.50;;;21.20;47.40;;;;;;220599;1266;24424;-70
2022/04/28 10:16:49;;;;;;;3.70;2.60;;;21.30;47.40;;;;;;220752;1268;24129;-69
2022/04/28 10:22:04;;;;;;;4.50;2.80;;;21.20;47.60;;;;;;220930;1268;24383;-71
2022/04/28 10:33:24;;;;;;;4.40;2.60;;;21.30;47.60;;;;;;220160;1268;25407;-68
2022/04/28 10:38:38;;;;;;;3.80;2.20;;;21.40;47.60;;;;;;220972;1267;24392;-69
2022/04/28 10:43:46;;;;;;;4.70;3.00;;;21.40;47.20;;;;;;220894;1267;22549;-60
2022/04/28 10:48:55;;;;;;;3.50;2.60;;;21.40;47.10;;;;;;220566;1267;22602;-69
2022/04/28 10:54:14;;;;;;;4.10;2.50;;;21.40;47.20;;;;;;220534;1267;22695;-69
2022/04/28 10:59:40;;;;;;;3.60;2.40;;;21.50;47.10;;;;;;220554;1267;22557;-68
2022/04/28 11:04:54;;;;;;;3.80;2.50;;;21.50;47.10;;;;;;221026;1267;24415;-70
2022/04/28 11:10:04;;;;;;;4.60;2.70;;;21.50;47.10;;;;;;220974;1268;22542;-68
2022/04/28 11:15:10;;;;;;;3.60;2.60;;;21.50;47.10;;;;;;220651;1267;25311;-66
2022/04/28 11:20:19;;;;;;;4.60;2.80;;;21.50;47.40;;;;;;220683;1268;23256;-71
2022/04/28 11:25:29;;;;;;;3.50;2.30;;;21.60;47.10;;;;;;220769;1267;25394;-68
2022/04/28 11:30:36;;;;;;;4.40;2.70;;;21.60;46.80;;;;;;220604;1268;25260;-70
2022/04/28 11:35:40;;;;;;;3.80;2.50;;;21.70;47.40;;;;;;220617;1267;24215;-69
2022/04/28 11:40:57;;;;;;;3.00;1.90;;;21.60;47.00;;;;;;220242;1267;25236;-70
2022/04/28 11:46:02;;;;;;;3.80;2.80;;;21.70;47.00;;;;;;220454;1267;25283;-68
2022/04/28 11:51:06;;;;;;;3.50;2.20;;;21.70;47.00;;;;;;220967;1267;22625;-73
2022/04/28 11:56:29;;;;;;;3.60;2.60;;;21.70;47.10;;;;;;220476;1267;22587;-67
2022/04/28 12:01:35;;;;;;;3.20;2.10;;;21.70;47.10;;;;;;220708;1267;22556;-71
2022/04/28 12:06:42;;;;;;;3.70;2.30;;;21.80;46.80;;;;;;220393;1267;24270;-70
2022/04/28 12:22:39;;;;;;;3.80;2.30;;;21.80;46.90;;;;;;220419;1267;25241;-68
2022/04/28 12:27:46;;;;;;;3.00;2.20;;;21.80;46.80;;;;;;221106;1267;22544;-72
2022/04/28 12:32:52;;;;;;;3.00;2.10;;;21.80;46.90;;;;;;220838;1267;23840;-68
2022/04/28 12:37:59;;;;;;;2.90;2.20;;;21.80;46.90;;;;;;220347;1267;22615;-73
2022/04/28 12:43:02;;;;;;;3.50;2.40;;;21.80;46.80;;;;;;220655;1267;23669;-70
2022/04/28 12:48:21;;;;;;;4.10;2.50;;;21.90;46.90;;;;;;220630;1267;22579;-72
2022/04/28 12:53:32;;;;;;;4.90;2.20;;;21.90;46.90;;;;;;220602;1267;24195;-69
2022/04/28 12:58:54;;;;;;;4.70;2.70;;;21.90;46.90;;;;;;220457;1266;22979;-69
2022/04/28 13:04:06;;;;;;;3.50;2.10;;;21.90;46.80;;;;;;220838;1267;24424;-68
2022/04/28 13:09:10;;;;;;;4.10;2.20;;;21.90;46.80;;;;;;220918;1267;24422;-68
2022/04/28 13:14:19;;;;;;;3.40;2.40;;;21.90;46.70;;;;;;220844;1267;22548;-69
2022/04/28 13:19:24;;;;;;;3.70;2.10;;;21.90;46.70;;;;;;220838;1267;25456;-69
2022/04/28 13:24:28;;;;;;;3.30;2.20;;;21.90;47.10;;;;;;220677;1267;22705;-67
2022/04/28 13:29:32;;;;;;;2.50;1.90;;;21.90;46.90;;;;;;220415;1267;25306;-69
2022/04/28 13:34:36;;;;;;;3.20;2.00;;;21.90;47.10;;;;;;220550;1267;22547;-71
2022/04/28 13:39:41;;;;;;;3.20;2.00;;;21.90;46.70;;;;;;220477;1267;22727;-72
2022/04/28 13:44:45;;;;;;;3.30;1.90;;;21.90;46.80;;;;;;220884;1267;22547;-72
2022/04/28 13:49:49;;;;;;;2.90;1.90;;;21.90;46.70;;;;;;221020;1267;22523;-68
2022/04/28 13:54:53;;;;;;;3.40;2.20;;;21.90;46.90;;;;;;220721;1267;25252;-68
2022/04/28 13:59:59;;;;;;;2.40;1.80;;;21.90;46.80;;;;;;220828;1268;22534;-71
2022/04/28 14:05:04;;;;;;;3.00;2.10;;;21.90;46.90;;;;;;220908;1267;25349;-69
2022/04/28 14:10:09;;;;;;;2.90;2.00;;;21.90;46.70;;;;;;220885;1267;25347;-68
2022/04/28 14:15:15;;;;;;;3.30;1.90;;;21.90;46.90;;;;;;220521;1267;24220;-70
2022/04/28 14:20:19;;;;;;;3.40;1.90;;;21.90;47.20;;;;;;220967;1267;22552;-69
2022/04/28 14:25:22;;;;;;;3.00;2.00;;;21.90;46.90;;;;;;220559;1267;25194;-71
2022/04/28 14:30:26;;;;;;;2.60;1.80;;;21.90;46.40;;;;;;220607;1268;22688;-70
2022/04/28 14:35:30;;;;;;;3.10;1.90;;;21.90;46.90;;;;;;221082;1268;25617;-70
2022/04/28 14:40:34;;;;;;;3.40;2.00;;;21.90;46.90;;;;;;220761;1267;25287;-70
2022/04/28 14:45:38;;;;;;;3.00;2.10;;;21.90;46.80;;;;;;220386;1268;22584;-71
2022/04/28 14:56:07;;;;;;;2.60;2.00;;;21.90;47.20;;;;;;220977;1267;22701;-68
2022/04/28 15:01:15;;;;;;;3.30;1.90;;;21.90;46.90;;;;;;220685;1267;22538;-72
2022/04/28 15:06:19;;;;;;;3.10;2.00;;;21.80;46.80;;;;;;220495;1267;25469;-69
2022/04/28 15:11:23;;;;;;;3.60;2.00;;;21.90;47.20;;;;;;220514;1267;25290;-71
2022/04/28 15:16:28;;;;;;;3.00;1.80;;;21.90;47.20;;;;;;220681;1267;22607;-70
2022/04/28 15:21:32;;;;;;;2.70;1.80;;;21.90;47.00;;;;;;220732;1266;24277;-74
2022/04/28 15:26:39;;;;;;;2.60;1.80;;;21.80;46.80;;;;;;221124;1267;25382;-70
2022/04/28 15:31:45;;;;;;;2.90;1.90;;;21.80;46.80;;;;;;221026;1267;24422;-71
2022/04/28 15:36:49;;;;;;;2.90;1.70;;;21.80;46.80;;;;;;220638;1265;24237;-69
2022/04/28 15:41:54;;;;;;;2.50;1.60;;;21.80;46.80;;;;;;220941;1267;24421;-71
2022/04/28 15:46:58;;;;;;;2.60;1.70;;;21.80;46.80;;;;;;220732;1267;25260;-71
2022/04/28 15:52:05;;;;;;;2.60;1.80;;;21.80;46.80;;;;;;220946;1267;22708;-71
2022/04/28 15:57:10;;;;;;;2.10;1.50;;;21.80;46.80;;;;;;220410;1266;23386;-71
2022/04/28 16:02:22;;;;;;;2.60;1.80;;;21.80;47.20;;;;;;220960;1267;22605;-74
2022/04/28 16:07:35;;;;;;;2.40;1.70;;;21.80;46.80;;;;;;220653;1267;22551;-70
2022/04/28 16:12:52;;;;;;;3.30;1.90;;;21.80;46.80;;;;;;220360;1269;24316;-71
2022/04/28 16:17:57;;;;;;;2.30;1.50;;;21.70;46.90;;;;;;220927;1267;22732;-69
2022/04/28 16:23:05;;;;;;;2.40;1.80;;;21.70;47.00;;;;;;220264;1267;647989;-70
2022/04/28 16:28:11;;;;;;;2.70;1.70;;;21.70;46.70;;;;;;220181;1270;22617;-61
2022/04/28 16:33:21;;;;;;;2.80;1.90;;;21.70;47.10;;;;;;220895;1267;23170;-68
2022/04/28 16:38:36;;;;;;;2.90;1.70;;;21.70;47.10;;;;;;220552;1267;22538;-70
2022/04/28 16:44:30;;;;;;;2.70;1.80;;;21.70;47.10;;;;;;220796;1267;24377;-73
2022/04/28 16:50:19;;;;;;;2.50;1.70;;;21.70;47.10;;;;;;220433;1268;22594;-71
2022/04/28 16:55:38;;;;;;;2.60;1.60;;;21.70;47.10;;;;;;220888;1267;25259;-70
2022/04/28 17:00:48;;;;;;;3.10;1.70;;;21.70;46.90;;;;;;220774;1267;22752;-68
2022/04/28 17:05:52;;;;;;;2.70;1.60;;;21.60;47.00;;;;;;220854;1267;22706;-73
2022/04/28 17:11:07;;;;;;;2.30;1.50;;;21.60;46.90;;;;;;220978;1267;22551;-69
2022/04/28 17:16:11;;;;;;;2.80;1.60;;;21.60;46.80;;;;;;220828;1267;24309;-70
2022/04/28 17:21:35;;;;;;;2.20;1.60;;;21.60;46.80;;;;;;220498;1267;22710;-70
2022/04/28 17:26:50;;;;;;;2.70;1.70;;;21.60;46.80;;;;;;220660;1267;22840;-68
2022/04/28 17:31:53;;;;;;;2.50;1.60;;;21.60;46.90;;;;;;220998;1267;25984;-69
2022/04/28 17:37:02;;;;;;;2.80;1.80;;;21.60;46.40;;;;;;220573;1267;24263;-71
2022/04/28 17:42:18;;;;;;;2.40;1.60;;;21.60;46.90;;;;;;220913;1267;22535;-70
2022/04/28 17:47:23;;;;;;;2.30;1.60;;;21.60;46.80;;;;;;221018;1268;22538;-69
2022/04/28 17:52:28;;;;;;;3.10;1.90;;;21.60;46.80;;;;;;220864;1267;25360;-70
2022/04/28 18:03:05;;;;;;;2.70;1.70;;;21.50;46.90;;;;;;220769;1267;22579;-61
2022/04/28 18:08:12;;;;;;;2.40;1.60;;;21.50;47.10;;;;;;220946;1267;24246;-68
2022/04/28 18:13:17;;;;;;;2.50;1.70;;;21.50;47.00;;;;;;220425;1270;24422;-70
2022/04/28 18:18:21;;;;;;;3.20;1.60;;;21.50;47.00;;;;;;220905;1267;22731;-67
2022/04/28 18:23:25;;;;;;;3.50;2.00;;;21.50;47.00;;;;;;220937;1267;22536;-70
2022/04/28 18:28:29;;;;;;;2.50;1.70;;;21.50;47.00;;;;;;220760;1267;24426;-69
2022/04/28 18:33:34;;;;;;;2.80;1.70;;;21.50;47.10;;;;;;220846;1267;22668;-68
2022/04/28 18:49:30;;;;;;;2.70;1.70;;;21.40;47.30;;;;;;220449;1267;24299;-70
2022/04/28 18:54:37;;;;;;;3.30;1.50;;;21.40;47.20;;;;;;220533;1267;22554;-71
2022/04/28 18:59:46;;;;;;;2.70;1.60;;;21.40;47.20;;;;;;220556;1267;23198;-71
2022/04/28 19:04:59;;;;;;;2.60;1.70;;;21.40;47.30;;;;;;220438;1267;22727;-68
2022/04/28 19:10:14;;;;;;;2.90;1.80;;;21.40;47.30;;;;;;220428;1267;24281;-69
2022/04/28 19:15:20;;;;;;;2.70;1.90;;;21.40;47.30;;;;;;220650;1267;24453;-69
2022/04/28 19:20:30;;;;;;;2.80;1.90;;;21.30;47.30;;;;;;221039;1267;26520;-68
2022/04/28 19:25:39;;;;;;;2.60;1.60;;;21.30;47.60;;;;;;220964;1269;24387;-71
2022/04/28 19:30:44;;;;;;;3.00;1.80;;;21.30;47.40;;;;;;220942;1268;24125;-67
2022/04/28 19:35:57;;;;;;;3.10;1.80;;;21.30;47.70;;;;;;220675;1267;25276;-68
2022/04/28 19:41:04;;;;;;;2.50;1.80;;;21.30;47.40;;;;;;220847;1268;22544;-70
2022/04/28 19:46:14;;;;;;;3.00;1.80;;;21.30;47.50;;;;;;220434;1268;23869;-66
2022/04/28 19:51:25;;;;;;;2.70;1.80;;;21.20;47.40;;;;;;221000;1267;24288;-70
2022/04/28 19:56:35;;;;;;;2.90;1.80;;;21.20;47.50;;;;;;221039;1268;24398;-70
2022/04/28 20:01:44;;;;;;;3.00;1.80;;;21.20;47.50;;;;;;220913;1267;24368;-68
2022/04/28 20:06:51;;;;;;;2.90;1.90;;;21.20;47.50;;;;;;220877;1267;25241;-69
2022/04/28 20:12:00;;;;;;;2.50;1.80;;;21.20;47.60;;;;;;220687;1267;24278;-70
2022/04/28 20:17:08;;;;;;;3.10;1.90;;;21.10;47.60;;;;;;220830;1268;26610;-69
2022/04/28 20:22:19;;;;;;;2.80;1.90;;;21.10;47.60;;;;;;220914;1267;22682;-69
2022/04/28 20:27:23;;;;;;;3.10;1.90;;;21.10;47.60;;;;;;220682;1267;25251;-69
2022/04/28 20:32:33;;;;;;;2.70;1.80;;;21.10;47.70;;;;;;220594;1268;22561;-69
2022/04/28 20:37:39;;;;;;;2.90;2.20;;;21.10;47.70;;;;;;221024;1268;24069;-67
2022/04/28 20:42:48;;;;;;;3.50;2.20;;;21.00;47.90;;;;;;220568;1267;22535;-67
2022/04/28 20:47:53;;;;;;;3.40;2.10;;;21.00;47.70;;;;;;220615;1267;25334;-68
2022/04/28 20:53:04;;;;;;;2.80;1.80;;;20.90;47.60;;;;;;220698;1268;22685;-68
2022/04/28 20:58:11;;;;;;;4.30;1.90;;;20.90;47.70;;;;;;220708;1267;22615;-70
2022/04/28 21:03:19;;;;;;;3.10;2.20;;;21.00;47.70;;;;;;221067;1267;22682;-69
2022/04/28 21:08:31;;;;;;;2.80;1.80;;;20.90;47.60;;;;;;220834;1267;24312;-68
2022/04/28 21:13:40;;;;;;;3.40;1.90;;;20.90;47.60;;;;;;220749;1268;22553;-68
2022/04/28 21:18:58;;;;;;;4.10;1.80;;;20.90;47.70;;;;;;220796;1267;24258;-68
2022/04/28 21:24:09;;;;;;;2.60;1.70;;;20.90;47.70;;;;;;220662;1267;24290;-69
2022/04/28 21:29:16;;;;;;;3.50;1.90;;;20.90;47.80;;;;;;220616;1268;25395;-68
2022/04/28 21:34:21;;;;;;;3.30;2.20;;;20.90;48.10;;;;;;220816;1267;22528;-67
2022/04/28 21:39:27;;;;;;;2.50;1.60;;;20.80;47.60;;;;;;220463;1268;22735;-68
2022/04/28 21:44:32;;;;;;;3.80;2.20;;;20.80;47.60;;;;;;220618;1268;24383;-69
2022/04/28 21:49:38;;;;;;;2.60;1.90;;;20.80;47.70;;;;;;220758;1266;23048;-69
2022/04/28 21:54:42;;;;;;;3.10;1.80;;;20.80;47.70;;;;;;221097;1267;22680;-69
2022/04/28 21:59:47;;;;;;;3.50;2.20;;;20.80;48.00;;;;;;221087;1268;22579;-70
2022/04/28 22:15:37;;;;;;;2.80;1.70;;;20.80;47.30;;;;;;220424;1268;24215;-70
2022/04/28 22:20:40;;;;;;;3.80;2.50;;;20.70;47.80;;;;;;220676;1268;24297;-68
2022/04/28 22:25:45;;;;;;;3.10;2.10;;;20.70;47.70;;;;;;220691;1270;22543;-68
2022/04/28 22:30:49;;;;;;;2.80;1.80;;;20.70;47.80;;;;;;220554;1270;22791;-68
2022/04/28 22:35:53;;;;;;;3.20;1.90;;;20.70;48.10;;;;;;220801;1268;22818;-69
2022/04/28 22:40:57;;;;;;;2.90;2.20;;;20.70;47.80;;;;;;220869;1267;22699;-69
2022/04/28 22:46:00;;;;;;;4.10;2.50;;;20.60;47.80;;;;;;220447;1267;22678;-71
2022/04/28 22:51:04;;;;;;;3.20;2.20;;;20.60;47.80;;;;;;220820;1268;22530;-70
2022/04/28 22:56:18;;;;;;;3.80;2.20;;;20.60;47.80;;;;;;220649;1267;22550;-71
2022/04/28 23:01:22;;;;;;;3.40;2.20;;;20.60;47.80;;;;;;220948;1270;22537;-68
2022/04/28 23:06:29;;;;;;;3.40;2.10;;;20.60;47.80;;;;;;220787;1268;22537;-72
2022/04/28 23:11:32;;;;;;;3.70;2.20;;;20.60;47.80;;;;;;220654;1270;24358;-70
2022/04/28 23:16:37;;;;;;;3.80;2.30;;;20.60;48.10;;;;;;221021;1270;23946;-71
2022/04/28 23:21:41;;;;;;;3.40;2.20;;;20.60;48.10;;;;;;220748;1268;22547;-71
2022/04/28 23:26:46;;;;;;;3.40;2.30;;;20.50;47.70;;;;;;220618;1268;22806;-68
2022/04/28 23:31:50;;;;;;;3.30;2.10;;;20.50;47.70;;;;;;220550;1268;22590;-68
2022/04/28 23:42:28;;;;;;;4.00;2.60;;;20.60;47.80;;;;;;221123;1268;24262;-68
2022/04/28 23:47:32;;;;;;;3.90;2.30;;;20.50;47.70;;;;;;220698;1268;24371;-72
2022/04/28 23:57:59;;;;;;;4.20;2.80;;;20.50;47.70;;;;;;220843;1269;24382;-69
